LSZA Airport Information

Runway Information
Runway 01 Length 4429 ft width 98 ft
Elevation 896 ft Threshold 361 ft Heading 19
Runway 19 Length 4429 ft Width 98 ft
Elevation 915 ft Threshold 672 ft Heading 199
Airport Frequencies
Type ATIS Name ATIS Frequency 121.175 MHZ
Type GND Name GND Frequency 121.775 MHZ
Type TWR Name TWR Frequency 120.25 MHZ
Airport Navaids
Airport Weather Information & NOTAM
ADDS - METARS form results

(1711 UTC 18 November 2018)
Data provider http://aviationweather.gov/metar/data/
 
METAR text: LSZA 181650Z 36003KT CAVOK 04/01 Q1016 NOSIG
Conditions at: LSZA (LUGANO (PVT/AUT), CH) observed 1650 UTC 18 November 2018
Temperature: 4.0°C (39°F)
Dewpoint: 1.0°C (34°F) [RH = 81%]
Pressure (altimeter): 30.00 inches Hg (1016.0 mb)
Winds: from the N (360 degrees) at 3 MPH (3 knots; 1.5 m/s)
Visibility: 6 or more miles (10+ km)
Ceiling: ceiling and visibility are OK
Clouds: unknown
Weather: no significant weather observed at this time

METAR text: LSZA 181620Z VRB01KT 9999 FEW050 06/01 Q1016 NOSIG
Conditions at: LSZA (LUGANO (PVT/AUT), CH) observed 1620 UTC 18 November 2018
Temperature: 6.0°C (43°F)
Dewpoint: 1.0°C (34°F) [RH = 70%]
Pressure (altimeter): 30.00 inches Hg (1016.0 mb)
Winds: variable direction winds at 1 MPH (1 knots; 0.5 m/s)
Visibility: 6 or more miles (10+ km)
Ceiling: at least 12,000 feet AGL
Clouds: few clouds at 5000 feet AGL
Weather: no significant weather observed at this time

Forecast for: LSZA (LUGANO (PVT/AUT), CH)
Text: TAF LSZA 181425Z 1815/1824 VRB03KT 9999 FEW050
Forecast period: 1500 UTC 18 November 2018 to 0000 UTC 19 November 2018
Forecast type: FROM: standard forecast or significant change
Winds: variable direction winds at 3 MPH (3 knots; 1.5 m/s)
Visibility: 6 or more miles 10+ km)
Ceiling: at least 12,000 feet AGL
Clouds: few clouds at 5000 feet AGL
Weather: no significant weather forecast for this period
Text: TEMPO 1815/1821 CAVOK
Forecast period: 1500 to 2100 UTC 18 November 2018
Forecast type: TEMPORARY: The following changes expected for less than half the time period
Visibility: 6 or more miles 10+ km)
Ceiling: unknown
Clouds: missing
Weather: NSW  (no significant weather)